Time;durP1;ratioP1;P1;durP2;ratioP2;P2;SDS_P1;SDS_P2;PMS_P1;PMS_P2;Temp;Humidity;BMP_temperature;BMP_pressure;BME280_temperature;BME280_humidity;BME280_pressure;Samples;Min_cycle;Max_cycle;Signal;HPM_P1;HPM_P2
2023/04/28 00:57:02;;;;;;;;;;;;;;;;;;5333530;23;19917;-95
2023/04/28 00:59:38;;;;;;;;;;;;;;;;;;4977931;28;19946;-94
2023/04/28 01:09:51;;;;;;;;;;;;;;;;;;5634386;23;19917;-94
2023/04/28 01:12:17;;;;;;;;;;;;;;;;;;4976525;28;19934;-96
2023/04/28 01:14:44;;;;;;;;;;;;;;;;;;4980489;28;19922;-96
2023/04/28 01:17:10;;;;;;;;;;;;;;;;;;4981244;28;19913;-94
2023/04/28 01:19:36;;;;;;;;;;;;;;;;;;4980605;28;19922;-95
2023/04/28 01:22:06;;;;;;;;;;;;;;;;;;4997714;28;19993;-93
2023/04/28 01:24:32;;;;;;;;;;;;;;;;;;4999651;28;19965;-92
2023/04/28 01:26:58;;;;;;;;;;;;;;;;;;4982836;28;19934;-91
2023/04/28 01:29:25;;;;;;;;;;;;;;;;;;5026997;23;19916;-94
2023/04/28 01:31:51;;;;;;;;;;;;;;;;;;4981079;28;19950;-93
2023/04/28 04:54:17;;;;;;;;;;;;;;;;;;4976542;28;19910;-93
2023/04/28 05:20:17;;;;;;;;;;;;;;;;;;4976744;28;19917;-96
2023/04/28 05:22:43;;;;;;;;;;;;;;;;;;4956939;29;19927;-94
2023/04/28 05:27:44;;;;;;;;;;;;;;;;;;5505720;23;19933;-95
2023/04/28 05:30:10;;;;;;;;;;;;;;;;;;4946089;29;19926;-93
2023/04/28 05:32:36;;;;;;;;;;;;;;;;;;4950427;29;19958;-93
2023/04/28 05:35:02;;;;;;;;;;;;;;;;;;4947019;29;19927;-94
2023/04/28 05:37:28;;;;;;;;;;;;;;;;;;4964388;29;19934;-94
2023/04/28 05:39:54;;;;;;;;;;;;;;;;;;4953632;29;19922;-94
2023/04/28 05:42:20;;;;;;;;;;;;;;;;;;4950467;29;19926;-93
2023/04/28 05:44:46;;;;;;;;;;;;;;;;;;4947082;29;19986;-91
2023/04/28 05:47:12;;;;;;;;;;;;;;;;;;4948248;29;19950;-95
2023/04/28 05:52:26;;;;;;;;;;;;;;;;;;4964758;28;19986;-90
2023/04/28 05:54:53;;;;;;;;;;;;;;;;;;5335103;23;19937;-94
2023/04/28 05:57:19;;;;;;;;;;;;;;;;;;4992409;28;19906;-94
2023/04/28 05:59:45;;;;;;;;;;;;;;;;;;4967252;28;19929;-96
2023/04/28 06:02:11;;;;;;;;;;;;;;;;;;4970215;28;19922;-91
2023/04/28 06:04:37;;;;;;;;;;;;;;;;;;4965071;28;19922;-94
2023/04/28 06:07:02;;;;;;;;;;;;;;;;;;4970163;28;20412;-95
2023/04/28 06:09:28;;;;;;;;;;;;;;;;;;4964844;28;19961;-95
2023/04/28 06:11:54;;;;;;;;;;;;;;;;;;4968053;28;19976;-95
2023/04/28 06:16:56;;;;;;;;;;;;;;;;;;5218221;23;19926;-85
2023/04/28 06:19:22;;;;;;;;;;;;;;;;;;4942317;29;19999;-86
2023/04/28 06:21:50;;;;;;;;;;;;;;;;;;4939671;29;19929;-86
2023/04/28 06:24:16;;;;;;;;;;;;;;;;;;4939401;29;19922;-87
2023/04/28 06:26:42;;;;;;;;;;;;;;;;;;4951002;29;19965;-87
2023/04/28 06:29:11;;;;;;;;;;;;;;;;;;4949406;29;19923;-87
2023/04/28 06:31:37;;;;;;;;;;;;;;;;;;4970587;29;19922;-88
2023/04/28 06:34:03;;;;;;;;;;;;;;;;;;4949246;29;19946;-87
2023/04/28 06:36:29;;;;;;;;;;;;;;;;;;4939964;29;19911;-84
2023/04/28 06:38:55;;;;;;;;;;;;;;;;;;4947564;29;19938;-85
2023/04/28 06:41:20;;;;;;;;;;;;;;;;;;4941982;29;19931;-87
2023/04/28 06:43:46;;;;;;;;;;;;;;;;;;4945332;29;19962;-87
2023/04/28 06:46:13;;;;;;;;;;;;;;;;;;4945133;29;19926;-87
2023/04/28 06:48:38;;;;;;;;;;;;;;;;;;4956360;29;19978;-88
2023/04/28 06:51:05;;;;;;;;;;;;;;;;;;4946113;29;19922;-85
2023/04/28 06:53:30;;;;;;;;;;;;;;;;;;4957441;29;20018;-86
2023/04/28 06:55:56;;;;;;;;;;;;;;;;;;4941666;29;19922;-86
2023/04/28 06:58:22;;;;;;;;;;;;;;;;;;4945764;29;19923;-87
2023/04/28 07:00:48;;;;;;;;;;;;;;;;;;4936732;29;19922;-88
2023/04/28 07:03:14;;;;;;;;;;;;;;;;;;4947559;29;19973;-87
2023/04/28 07:05:41;;;;;;;;;;;;;;;;;;4955791;28;19926;-85
2023/04/28 07:08:07;;;;;;;;;;;;;;;;;;4963562;29;20016;-87
2023/04/28 07:10:34;;;;;;;;;;;;;;;;;;4970371;29;19946;-87
2023/04/28 07:13:00;;;;;;;;;;;;;;;;;;4942502;29;19926;-87
2023/04/28 07:15:26;;;;;;;;;;;;;;;;;;4947630;29;19950;-84
2023/04/28 07:17:52;;;;;;;;;;;;;;;;;;4949805;29;19922;-86
2023/04/28 07:20:18;;;;;;;;;;;;;;;;;;4942331;29;19946;-86
2023/04/28 07:22:44;;;;;;;;;;;;;;;;;;4955943;29;19907;-87
2023/04/28 07:25:10;;;;;;;;;;;;;;;;;;4947990;29;19923;-87
2023/04/28 07:27:36;;;;;;;;;;;;;;;;;;4945245;29;19946;-87
2023/04/28 07:30:02;;;;;;;;;;;;;;;;;;4943374;29;19922;-87
2023/04/28 07:32:28;;;;;;;;;;;;;;;;;;4952543;29;19923;-86
2023/04/28 07:34:54;;;;;;;;;;;;;;;;;;4953539;29;19926;-86
2023/04/28 07:37:22;;;;;;;;;;;;;;;;;;4948266;29;19934;-87
2023/04/28 07:39:48;;;;;;;;;;;;;;;;;;4955162;29;19922;-86
2023/04/28 07:42:14;;;;;;;;;;;;;;;;;;4946208;29;19923;-85
2023/04/28 07:44:40;;;;;;;;;;;;;;;;;;4941002;29;19933;-86
2023/04/28 07:47:06;;;;;;;;;;;;;;;;;;4936412;29;19927;-86
2023/04/28 07:49:32;;;;;;;;;;;;;;;;;;4946671;29;19929;-87
2023/04/28 07:51:58;;;;;;;;;;;;;;;;;;4960852;29;19923;-86
2023/04/28 07:54:24;;;;;;;;;;;;;;;;;;4965429;29;19923;-87
2023/04/28 07:56:50;;;;;;;;;;;;;;;;;;4946281;29;19922;-86
2023/04/28 07:59:16;;;;;;;;;;;;;;;;;;4944876;29;19927;-85
2023/04/28 08:01:41;;;;;;;;;;;;;;;;;;4940007;29;19935;-86
2023/04/28 08:04:07;;;;;;;;;;;;;;;;;;4944184;29;19922;-87
2023/04/28 08:06:35;;;;;;;;;;;;;;;;;;4950102;29;20297;-87
2023/04/28 08:09:05;;;;;;;;;;;;;;;;;;4957277;29;19929;-86
2023/04/28 08:11:32;;;;;;;;;;;;;;;;;;4965858;29;19929;-87
2023/04/28 08:14:01;;;;;;;;;;;;;;;;;;4940820;29;19946;-86
2023/04/28 08:16:27;;;;;;;;;;;;;;;;;;4946252;29;19929;-86
2023/04/28 08:18:54;;;;;;;;;;;;;;;;;;4956242;28;19930;-86
2023/04/28 08:21:20;;;;;;;;;;;;;;;;;;4940070;29;20023;-86
2023/04/28 08:23:46;;;;;;;;;;;;;;;;;;4951515;29;19965;-86
2023/04/28 08:26:11;;;;;;;;;;;;;;;;;;4947550;29;19934;-86
2023/04/28 08:28:38;;;;;;;;;;;;;;;;;;4940728;29;19947;-86
2023/04/28 08:31:13;;;;;;;;;;;;;;;;;;4959655;29;19931;-86
2023/04/28 08:33:43;;;;;;;;;;;;;;;;;;4939553;29;20339;-86
2023/04/28 08:36:10;;;;;;;;;;;;;;;;;;4963183;29;20014;-86
2023/04/28 08:38:37;;;;;;;;;;;;;;;;;;4947717;29;20376;-87
2023/04/28 08:41:03;;;;;;;;;;;;;;;;;;4960750;29;19926;-84
2023/04/28 08:43:29;;;;;;;;;;;;;;;;;;4938266;29;20016;-86
2023/04/28 08:45:55;;;;;;;;;;;;;;;;;;4947809;29;19934;-85
2023/04/28 08:48:21;;;;;;;;;;;;;;;;;;4948406;29;19922;-85
2023/04/28 08:50:48;;;;;;;;;;;;;;;;;;4951914;29;20373;-85
2023/04/28 08:53:14;;;;;;;;;;;;;;;;;;4943028;29;19922;-87
2023/04/28 08:55:40;;;;;;;;;;;;;;;;;;4959998;29;20029;-86
2023/04/28 08:58:06;;;;;;;;;;;;;;;;;;4942870;29;19986;-87
2023/04/28 09:00:32;;;;;;;;;;;;;;;;;;4938898;29;19923;-85
2023/04/28 09:02:58;;;;;;;;;;;;;;;;;;4960065;29;19923;-85
2023/04/28 09:05:24;;;;;;;;;;;;;;;;;;4939976;29;19969;-85
2023/04/28 09:07:50;;;;;;;;;;;;;;;;;;4954590;29;19926;-84
2023/04/28 09:10:20;;;;;;;;;;;;;;;;;;4956946;29;19923;-86
2023/04/28 09:12:46;;;;;;;;;;;;;;;;;;4943418;29;19930;-85
2023/04/28 09:15:12;;;;;;;;;;;;;;;;;;4942014;29;19922;-85
2023/04/28 09:17:38;;;;;;;;;;;;;;;;;;4942310;29;19922;-84
2023/04/28 09:20:04;;;;;;;;;;;;;;;;;;4947567;29;19927;-87
2023/04/28 09:22:30;;;;;;;;;;;;;;;;;;4945849;29;20000;-86
2023/04/28 09:24:56;;;;;;;;;;;;;;;;;;4945504;29;19926;-86
2023/04/28 09:27:22;;;;;;;;;;;;;;;;;;4954285;29;20094;-85
2023/04/28 09:29:48;;;;;;;;;;;;;;;;;;4952080;29;19922;-86
2023/04/28 09:32:14;;;;;;;;;;;;;;;;;;4970482;29;19994;-85
2023/04/28 09:34:40;;;;;;;;;;;;;;;;;;4950054;29;19922;-86
2023/04/28 09:37:06;;;;;;;;;;;;;;;;;;4940611;29;19927;-86
2023/04/28 09:39:32;;;;;;;;;;;;;;;;;;4948487;29;19985;-85
2023/04/28 09:42:02;;;;;;;;;;;;;;;;;;4961156;29;19950;-85
2023/04/28 09:44:28;;;;;;;;;;;;;;;;;;4944102;29;19923;-84
2023/04/28 09:46:54;;;;;;;;;;;;;;;;;;4950974;29;19955;-87
2023/04/28 09:49:20;;;;;;;;;;;;;;;;;;4944811;29;19923;-85
2023/04/28 09:51:45;;;;;;;;;;;;;;;;;;4949026;29;19926;-84
2023/04/28 09:54:11;;;;;;;;;;;;;;;;;;4956845;29;19922;-86
2023/04/28 09:56:37;;;;;;;;;;;;;;;;;;4963108;29;20356;-86
2023/04/28 09:59:03;;;;;;;;;;;;;;;;;;4946990;29;19923;-86
2023/04/28 10:01:33;;;;;;;;;;;;;;;;;;4958081;29;19907;-85
2023/04/28 10:03:59;;;;;;;;;;;;;;;;;;4942219;29;19923;-86
2023/04/28 10:06:26;;;;;;;;;;;;;;;;;;4941249;29;19926;-85
2023/04/28 10:08:52;;;;;;;;;;;;;;;;;;4953141;29;19962;-85
2023/04/28 10:11:19;;;;;;;;;;;;;;;;;;4943141;29;20280;-86
2023/04/28 10:13:45;;;;;;;;;;;;;;;;;;4953990;29;19933;-86
2023/04/28 10:16:11;;;;;;;;;;;;;;;;;;4939771;29;19923;-86
2023/04/28 10:18:38;;;;;;;;;;;;;;;;;;4944283;29;19922;-86
2023/04/28 10:21:04;;;;;;;;;;;;;;;;;;4955984;29;19922;-84
2023/04/28 10:23:30;;;;;;;;;;;;;;;;;;4939455;29;19922;-86
2023/04/28 10:25:58;;;;;;;;;;;;;;;;;;4946890;29;19989;-86
2023/04/28 10:28:25;;;;;;;;;;;;;;;;;;4951413;29;19929;-86
2023/04/28 10:30:51;;;;;;;;;;;;;;;;;;4942051;29;20383;-86
2023/04/28 10:33:19;;;;;;;;;;;;;;;;;;4949795;29;20451;-87
2023/04/28 10:35:45;;;;;;;;;;;;;;;;;;4945028;29;20419;-86
2023/04/28 10:38:11;;;;;;;;;;;;;;;;;;4965547;29;19994;-85
2023/04/28 10:40:37;;;;;;;;;;;;;;;;;;4947263;29;19922;-85
2023/04/28 10:43:03;;;;;;;;;;;;;;;;;;4951483;29;19922;-87
2023/04/28 10:45:29;;;;;;;;;;;;;;;;;;4948164;29;19927;-85
2023/04/28 10:47:55;;;;;;;;;;;;;;;;;;4956903;29;19933;-86
2023/04/28 10:50:21;;;;;;;;;;;;;;;;;;4942773;29;19923;-85
2023/04/28 10:52:47;;;;;;;;;;;;;;;;;;4951941;29;20296;-85
2023/04/28 10:55:13;;;;;;;;;;;;;;;;;;4951272;29;19929;-85
2023/04/28 10:57:40;;;;;;;;;;;;;;;;;;4942878;29;19923;-85
2023/04/28 11:00:06;;;;;;;;;;;;;;;;;;4961309;29;19935;-86
2023/04/28 11:02:32;;;;;;;;;;;;;;;;;;4945250;29;19927;-85
2023/04/28 11:04:59;;;;;;;;;;;;;;;;;;4937330;29;19986;-86
2023/04/28 11:07:25;;;;;;;;;;;;;;;;;;4968647;29;19930;-86
2023/04/28 11:09:51;;;;;;;;;;;;;;;;;;4938085;29;19930;-84
2023/04/28 11:12:17;;;;;;;;;;;;;;;;;;4941072;29;19922;-85
2023/04/28 11:14:43;;;;;;;;;;;;;;;;;;4952967;29;19922;-85
2023/04/28 11:17:12;;;;;;;;;;;;;;;;;;4945888;29;19929;-86
2023/04/28 11:19:38;;;;;;;;;;;;;;;;;;4953591;28;19923;-87
2023/04/28 11:22:10;;;;;;;;;;;;;;;;;;4940233;29;20005;-85
2023/04/28 11:24:36;;;;;;;;;;;;;;;;;;4945053;29;19976;-85
2023/04/28 11:27:02;;;;;;;;;;;;;;;;;;4952842;29;19927;-87
2023/04/28 11:29:28;;;;;;;;;;;;;;;;;;4941713;29;19923;-86
2023/04/28 11:31:57;;;;;;;;;;;;;;;;;;4939757;29;19923;-86
2023/04/28 11:34:23;;;;;;;;;;;;;;;;;;4941437;29;19917;-86
2023/04/28 11:36:49;;;;;;;;;;;;;;;;;;4961110;29;19930;-85
2023/04/28 11:39:15;;;;;;;;;;;;;;;;;;4949819;29;19922;-88
2023/04/28 11:41:41;;;;;;;;;;;;;;;;;;4943105;29;19969;-85
2023/04/28 11:44:06;;;;;;;;;;;;;;;;;;4939998;29;19986;-86
2023/04/28 11:46:32;;;;;;;;;;;;;;;;;;4935985;29;19986;-86
2023/04/28 11:48:59;;;;;;;;;;;;;;;;;;4938140;29;19922;-84
2023/04/28 11:51:25;;;;;;;;;;;;;;;;;;4946289;29;19945;-85
2023/04/28 11:53:51;;;;;;;;;;;;;;;;;;4950875;29;20385;-84
2023/04/28 11:56:17;;;;;;;;;;;;;;;;;;4953010;29;19923;-85
2023/04/28 11:58:43;;;;;;;;;;;;;;;;;;4946911;29;19922;-86
2023/04/28 12:01:10;;;;;;;;;;;;;;;;;;4966310;29;19929;-85
2023/04/28 12:03:36;;;;;;;;;;;;;;;;;;4969978;29;19984;-86
2023/04/28 12:06:02;;;;;;;;;;;;;;;;;;4936579;29;19986;-85
2023/04/28 12:08:47;;;;;;;;;;;;;;;;;;4937165;29;19947;-86
2023/04/28 12:11:16;;;;;;;;;;;;;;;;;;4969676;29;19958;-85
2023/04/28 12:13:59;;;;;;;;;;;;;;;;;;4970331;29;19987;-84
2023/04/28 13:49:56;;;;;;;;;;;;;;;;;;5717072;23;20002;-92
2023/04/28 13:52:24;;;;;;;;;;;;;;;;;;4950370;29;19958;-95
2023/04/28 14:00:03;;;;;;;;;;;;;;;;;;5811712;23;19954;-95
2023/04/28 14:07:48;;;;;;;;;;;;;;;;;;5116592;23;19934;-93
2023/04/28 14:10:39;;;;;;;;;;;;;;;;;;5623068;23;20370;-93
2023/04/28 14:21:00;;;;;;;;;;;;;;;;;;5256997;23;19981;-93
2023/04/28 14:26:24;;;;;;;;;;;;;;;;;;5491550;23;19927;-93
2023/04/28 14:49:37;;;;;;;;;;;;;;;;;;5620620;23;19911;-92
2023/04/28 14:52:03;;;;;;;;;;;;;;;;;;4953513;29;19915;-91
2023/04/28 14:54:29;;;;;;;;;;;;;;;;;;4957762;29;19914;-92
2023/04/28 15:12:33;;;;;;;;;;;;;;;;;;4972535;28;19927;-92
2023/04/28 15:15:02;;;;;;;;;;;;;;;;;;4960320;29;19973;-93
2023/04/28 15:17:28;;;;;;;;;;;;;;;;;;4956777;29;19910;-94
2023/04/28 15:19:54;;;;;;;;;;;;;;;;;;4976862;23;19927;-91
2023/04/28 15:51:07;;;;;;;;;;;;;;;;;;4990660;26;19926;-87
2023/04/28 15:53:36;;;;;;;;;;;;;;;;;;4985279;28;19929;-85
2023/04/28 15:56:03;;;;;;;;;;;;;;;;;;4968893;28;20397;-86
2023/04/28 15:58:32;;;;;;;;;;;;;;;;;;4974475;28;19911;-85
2023/04/28 16:01:17;;;;;;;;;;;;;;;;;;5440535;23;19927;-84
2023/04/28 16:03:45;;;;;;;;;;;;;;;;;;4946519;29;19923;-86
2023/04/28 16:06:11;;;;;;;;;;;;;;;;;;4954763;29;19927;-85
2023/04/28 16:08:37;;;;;;;;;;;;;;;;;;4934408;29;19930;-85
2023/04/28 16:11:04;;;;;;;;;;;;;;;;;;4934918;29;19970;-86
2023/04/28 16:18:41;;;;;;;;;;;;;;;;;;5304493;23;19914;-95
2023/04/28 16:26:21;;;;;;;;;;;;;;;;;;5107991;23;19926;-94
2023/04/28 16:31:23;;;;;;;;;;;;;;;;;;5720099;23;19926;-93
2023/04/28 16:33:52;;;;;;;;;;;;;;;;;;4994728;28;19914;-94
2023/04/28 16:38:54;;;;;;;;;;;;;;;;;;5693251;23;19934;-89
2023/04/28 16:41:20;;;;;;;;;;;;;;;;;;4999129;28;19922;-93
2023/04/28 16:46:22;;;;;;;;;;;;;;;;;;5573876;23;20347;-87
2023/04/28 16:48:48;;;;;;;;;;;;;;;;;;4969430;28;19926;-88
2023/04/28 16:51:14;;;;;;;;;;;;;;;;;;4974954;28;20660;-86
2023/04/28 16:53:40;;;;;;;;;;;;;;;;;;4965939;28;19932;-86
2023/04/28 16:56:06;;;;;;;;;;;;;;;;;;4970034;28;19922;-85
2023/04/28 16:58:32;;;;;;;;;;;;;;;;;;4956498;29;19985;-86
2023/04/28 17:01:01;;;;;;;;;;;;;;;;;;4986500;28;19933;-85
2023/04/28 17:03:28;;;;;;;;;;;;;;;;;;4978961;28;19922;-86
2023/04/28 17:05:54;;;;;;;;;;;;;;;;;;4971193;28;20296;-85
2023/04/28 17:08:20;;;;;;;;;;;;;;;;;;4977208;28;19961;-84
2023/04/28 17:10:45;;;;;;;;;;;;;;;;;;4970761;28;19977;-86
2023/04/28 17:13:11;;;;;;;;;;;;;;;;;;4969643;28;19922;-86
2023/04/28 17:15:37;;;;;;;;;;;;;;;;;;4966488;28;19922;-86
2023/04/28 17:18:04;;;;;;;;;;;;;;;;;;4965168;28;19933;-86
2023/04/28 17:20:31;;;;;;;;;;;;;;;;;;4970477;28;19922;-86
2023/04/28 17:23:15;;;;;;;;;;;;;;;;;;4978416;28;19906;-86
2023/04/28 17:25:56;;;;;;;;;;;;;;;;;;4975838;28;19930;-86
2023/04/28 17:28:24;;;;;;;;;;;;;;;;;;4962223;28;19930;-86
2023/04/28 17:30:51;;;;;;;;;;;;;;;;;;4958980;29;19930;-87
2023/04/28 17:33:17;;;;;;;;;;;;;;;;;;4969404;28;19930;-87
2023/04/28 17:35:43;;;;;;;;;;;;;;;;;;4980640;28;19969;-87
2023/04/28 17:38:11;;;;;;;;;;;;;;;;;;4983369;28;19950;-86
2023/04/28 17:40:47;;;;;;;;;;;;;;;;;;4986700;28;19932;-86
2023/04/28 20:00:52;;;;;;;;;;;;;;;;;;5096193;23;19934;-86
2023/04/28 20:03:18;;;;;;;;;;;;;;;;;;4946064;29;19923;-86
2023/04/28 20:08:48;;;;;;;;;;;;;;;;;;4963663;28;19969;-86
2023/04/28 20:11:14;;;;;;;;;;;;;;;;;;4946219;29;19931;-86
2023/04/28 20:13:40;;;;;;;;;;;;;;;;;;4945592;29;19938;-84
2023/04/28 20:16:06;;;;;;;;;;;;;;;;;;4948132;29;19922;-86
2023/04/28 20:18:32;;;;;;;;;;;;;;;;;;4950518;29;19994;-87
2023/04/28 20:21:09;;;;;;;;;;;;;;;;;;4979110;28;19970;-86
2023/04/28 20:26:43;;;;;;;;;;;;;;;;;;4986570;28;19922;-84
2023/04/28 20:29:18;;;;;;;;;;;;;;;;;;4962515;29;19945;-85
2023/04/28 20:31:44;;;;;;;;;;;;;;;;;;4962230;29;20432;-85
2023/04/28 20:34:10;;;;;;;;;;;;;;;;;;4963898;29;19926;-86
2023/04/28 20:36:37;;;;;;;;;;;;;;;;;;4962914;29;19930;-86
2023/04/28 20:39:25;;;;;;;;;;;;;;;;;;4971504;28;19985;-86
2023/04/28 20:41:51;;;;;;;;;;;;;;;;;;4947119;29;19927;-87
2023/04/28 20:44:17;;;;;;;;;;;;;;;;;;4962532;29;19929;-86
2023/04/28 20:46:43;;;;;;;;;;;;;;;;;;4945857;29;19938;-85
2023/04/28 20:52:12;;;;;;;;;;;;;;;;;;4977042;29;19925;-86
2023/04/28 20:54:39;;;;;;;;;;;;;;;;;;4962626;29;20295;-86
2023/04/28 20:57:05;;;;;;;;;;;;;;;;;;4945052;29;19934;-86
2023/04/28 20:59:31;;;;;;;;;;;;;;;;;;4945757;29;19923;-86
2023/04/28 21:02:10;;;;;;;;;;;;;;;;;;4945579;29;19914;-85
2023/04/28 21:05:21;;;;;;;;;;;;;;;;;;4969738;29;19929;-84
2023/04/28 21:08:01;;;;;;;;;;;;;;;;;;4975599;28;19911;-85
2023/04/28 21:10:36;;;;;;;;;;;;;;;;;;4961921;28;19922;-86
2023/04/28 21:13:02;;;;;;;;;;;;;;;;;;4962070;29;19926;-86
2023/04/28 21:18:36;;;;;;;;;;;;;;;;;;4989056;28;19994;-86
2023/04/28 21:21:06;;;;;;;;;;;;;;;;;;4982051;28;19922;-86
2023/04/28 21:23:36;;;;;;;;;;;;;;;;;;4960511;29;19907;-86
2023/04/28 21:34:08;;;;;;;;;;;;;;;;;;5097233;23;20395;-86
2023/04/28 21:36:34;;;;;;;;;;;;;;;;;;4950532;29;19922;-86
2023/04/28 21:39:11;;;;;;;;;;;;;;;;;;4958455;29;20296;-87
2023/04/28 21:41:38;;;;;;;;;;;;;;;;;;4954539;28;19966;-86
2023/04/28 21:44:15;;;;;;;;;;;;;;;;;;4971275;28;19930;-86
2023/04/28 21:46:42;;;;;;;;;;;;;;;;;;4981139;29;19931;-85
2023/04/28 21:49:13;;;;;;;;;;;;;;;;;;4981441;28;19917;-87
2023/04/28 21:51:41;;;;;;;;;;;;;;;;;;4980532;29;19966;-85
2023/04/28 21:54:13;;;;;;;;;;;;;;;;;;4980678;28;19930;-86
2023/04/28 21:56:55;;;;;;;;;;;;;;;;;;4981228;28;19949;-85
2023/04/28 21:59:23;;;;;;;;;;;;;;;;;;4980303;28;19927;-85
2023/04/28 22:02:22;;;;;;;;;;;;;;;;;;4980997;28;19906;-85
2023/04/28 22:05:07;;;;;;;;;;;;;;;;;;4972177;28;19923;-86
2023/04/28 22:07:33;;;;;;;;;;;;;;;;;;4947044;29;19927;-85
2023/04/28 22:09:59;;;;;;;;;;;;;;;;;;4963243;28;19977;-86
2023/04/28 22:12:25;;;;;;;;;;;;;;;;;;4948651;29;19930;-86
2023/04/28 22:14:50;;;;;;;;;;;;;;;;;;4947968;29;19977;-86
2023/04/28 22:17:16;;;;;;;;;;;;;;;;;;4948655;29;19923;-86
2023/04/28 22:19:45;;;;;;;;;;;;;;;;;;4955294;29;20171;-86
2023/04/28 22:22:17;;;;;;;;;;;;;;;;;;4980811;28;19926;-87
2023/04/28 22:24:57;;;;;;;;;;;;;;;;;;4981231;28;19930;-87
2023/04/28 22:27:29;;;;;;;;;;;;;;;;;;4980369;28;20400;-87
2023/04/28 22:29:57;;;;;;;;;;;;;;;;;;4963312;29;19914;-85
2023/04/28 22:32:43;;;;;;;;;;;;;;;;;;4964140;29;19969;-86
2023/04/28 22:35:09;;;;;;;;;;;;;;;;;;4977083;29;19949;-86
2023/04/28 22:37:38;;;;;;;;;;;;;;;;;;4970689;28;19922;-86
2023/04/28 22:43:01;;;;;;;;;;;;;;;;;;4979902;29;19950;-86
2023/04/28 22:45:47;;;;;;;;;;;;;;;;;;4980340;28;19906;-85
2023/04/28 22:48:13;;;;;;;;;;;;;;;;;;4963538;29;19930;-86
2023/04/28 23:06:32;;;;;;;;;;;;;;;;;;5663706;23;20344;-85
2023/04/28 23:08:58;;;;;;;;;;;;;;;;;;4962812;29;19927;-87
2023/04/28 23:11:25;;;;;;;;;;;;;;;;;;4947170;29;19969;-85
2023/04/28 23:13:52;;;;;;;;;;;;;;;;;;4953022;29;19930;-86
2023/04/28 23:16:22;;;;;;;;;;;;;;;;;;4979399;28;19937;-86
2023/04/28 23:18:48;;;;;;;;;;;;;;;;;;4963178;29;19926;-84
2023/04/28 23:26:35;;;;;;;;;;;;;;;;;;5437547;23;19945;-96
